ABY104 OBBI-OMSJ
Flight info
| Callsign | ABY104 |
|---|---|
| Flight time | 2h 9m |
| Altitude | 33000 |
| Route | BHR N697 KFA H732 EMOGA DCT GETOT Q212 KIA M440 SITER DCT RIBOT DCT GOLGU DCT RIGIL G783 ASPED Q308 ORKOB T891 NOLSU |
| Aircraft | A320/M-SDE3FGHIRWY/LB1 |
Departure
| Time | 2026-04-21 17:37 |
|---|---|
| Airport | Bahrain International Airport (OBBI) |
Arrival
| Time | 2026-04-21 19:47 |
|---|---|
| Airport | Sharjah International Airport (OMSJ) |
| Time | Latitude | Longitude | Altitude | Speed | Heading |
|---|---|---|---|---|---|
| 2026-04-21 15:58 | 26.26885 | 50.62917 | 17 ft | 0 kts | 211° |
| 2026-04-21 17:21 | 26.26896 | 50.62924 | 17 ft | 2 kts | 211° |
| 2026-04-21 17:21 | 26.26910 | 50.62934 | 19 ft | 2 kts | 211° |
| 2026-04-21 17:22 | 26.26925 | 50.62944 | 17 ft | 2 kts | 211° |
| 2026-04-21 17:22 | 26.26941 | 50.62952 | 21 ft | 3 kts | 180° |
| 2026-04-21 17:22 | 26.26959 | 50.62949 | 19 ft | 3 kts | 143° |
| 2026-04-21 17:22 | 26.26969 | 50.62937 | 20 ft | 0 kts | 116° |
| 2026-04-21 17:26 | 26.26967 | 50.62943 | 17 ft | 4 kts | 116° |
| 2026-04-21 17:26 | 26.26948 | 50.62986 | 18 ft | 10 kts | 115° |
| 2026-04-21 17:26 | 26.26911 | 50.63076 | 17 ft | 14 kts | 110° |
| 2026-04-21 17:27 | 26.26946 | 50.63168 | 18 ft | 14 kts | 47° |
| 2026-04-21 17:27 | 26.26931 | 50.63271 | 15 ft | 15 kts | 122° |
| 2026-04-21 17:27 | 26.26874 | 50.63374 | 15 ft | 17 kts | 122° |
| 2026-04-21 17:27 | 26.26802 | 50.63496 | 15 ft | 21 kts | 123° |
| 2026-04-21 17:28 | 26.26720 | 50.63640 | 16 ft | 22 kts | 123° |
| 2026-04-21 17:28 | 26.26661 | 50.63741 | 17 ft | 16 kts | 122° |
| 2026-04-21 17:28 | 26.26628 | 50.63799 | 16 ft | 9 kts | 122° |
| 2026-04-21 17:28 | 26.26586 | 50.63875 | 17 ft | 13 kts | 121° |
| 2026-04-21 17:29 | 26.26528 | 50.63975 | 17 ft | 18 kts | 123° |
| 2026-04-21 17:29 | 26.26452 | 50.64105 | 15 ft | 22 kts | 123° |
| 2026-04-21 17:29 | 26.26384 | 50.64229 | 15 ft | 14 kts | 101° |
| 2026-04-21 17:29 | 26.26408 | 50.64276 | 16 ft | 0 kts | 31° |
| 2026-04-21 17:34 | 26.26439 | 50.64299 | 15 ft | 11 kts | 36° |
| 2026-04-21 17:35 | 26.26507 | 50.64349 | 15 ft | 9 kts | 355° |
| 2026-04-21 17:35 | 26.26527 | 50.64325 | 15 ft | 0 kts | 301° |
| 2026-04-21 17:36 | 26.26530 | 50.64319 | 15 ft | 7 kts | 301° |
| 2026-04-21 17:36 | 26.26661 | 50.64098 | 17 ft | 69 kts | 304° |
| 2026-04-21 17:36 | 26.27039 | 50.63440 | 15 ft | 130 kts | 302° |
| 2026-04-21 17:37 | 26.27618 | 50.62442 | 19 ft | 175 kts | 311° |
| 2026-04-21 17:37 | 26.28331 | 50.61241 | 434 ft | 185 kts | 308° |
| 2026-04-21 17:37 | 26.28786 | 50.60443 | 927 ft | 185 kts | 307° |
| 2026-04-21 17:37 | 26.29777 | 50.58722 | 1440 ft | 211 kts | 307° |
| 2026-04-21 17:38 | 26.30570 | 50.57244 | 1768 ft | 235 kts | 303° |
| 2026-04-21 17:38 | 26.31416 | 50.55580 | 2139 ft | 257 kts | 303° |
| 2026-04-21 17:38 | 26.32337 | 50.53820 | 2766 ft | 267 kts | 303° |
| 2026-04-21 17:38 | 26.33293 | 50.52021 | 3512 ft | 272 kts | 303° |
| 2026-04-21 17:39 | 26.34271 | 50.50199 | 4246 ft | 275 kts | 298° |
| 2026-04-21 17:39 | 26.34813 | 50.48162 | 5008 ft | 276 kts | 272° |
| 2026-04-21 17:39 | 26.34563 | 50.46058 | 5696 ft | 275 kts | 250° |
| 2026-04-21 17:39 | 26.33927 | 50.44063 | 5930 ft | 270 kts | 249° |
| 2026-04-21 17:40 | 26.33261 | 50.42109 | 6001 ft | 269 kts | 248° |
| 2026-04-21 17:40 | 26.32577 | 50.40170 | 6015 ft | 269 kts | 247° |
| 2026-04-21 17:40 | 26.31896 | 50.38235 | 5977 ft | 268 kts | 248° |
| 2026-04-21 17:40 | 26.31223 | 50.36292 | 5987 ft | 269 kts | 248° |
| 2026-04-21 17:41 | 26.30658 | 50.34281 | 6507 ft | 274 kts | 259° |
| 2026-04-21 17:41 | 26.30596 | 50.32161 | 7305 ft | 276 kts | 275° |
| 2026-04-21 17:41 | 26.31108 | 50.30086 | 8085 ft | 280 kts | 288° |
| 2026-04-21 17:41 | 26.31841 | 50.28068 | 8716 ft | 282 kts | 287° |
| 2026-04-21 17:42 | 26.32572 | 50.26045 | 8901 ft | 281 kts | 287° |
| 2026-04-21 17:42 | 26.33200 | 50.24009 | 8950 ft | 275 kts | 276° |
| 2026-04-21 17:42 | 26.33221 | 50.21913 | 8952 ft | 269 kts | 261° |
| 2026-04-21 17:42 | 26.33018 | 50.19835 | 8952 ft | 269 kts | 261° |
| 2026-04-21 17:43 | 26.32810 | 50.17760 | 8952 ft | 269 kts | 260° |
| 2026-04-21 17:43 | 26.32586 | 50.15686 | 8951 ft | 269 kts | 259° |
| 2026-04-21 17:43 | 26.32347 | 50.13646 | 8953 ft | 269 kts | 260° |
| 2026-04-21 17:43 | 26.32146 | 50.11568 | 8953 ft | 270 kts | 261° |
| 2026-04-21 17:44 | 26.31963 | 50.09488 | 8955 ft | 270 kts | 261° |
| 2026-04-21 17:44 | 26.31781 | 50.07411 | 8953 ft | 269 kts | 261° |
| 2026-04-21 17:44 | 26.31376 | 50.05398 | 8955 ft | 265 kts | 242° |
| 2026-04-21 17:44 | 26.30219 | 50.03826 | 8958 ft | 265 kts | 218° |
| 2026-04-21 17:45 | 26.28678 | 50.02675 | 8995 ft | 268 kts | 213° |
| 2026-04-21 17:45 | 26.27083 | 50.01583 | 9706 ft | 269 kts | 213° |
| 2026-04-21 17:45 | 26.25464 | 50.00490 | 10215 ft | 280 kts | 213° |
| 2026-04-21 17:45 | 26.23918 | 49.99059 | 10360 ft | 301 kts | 232° |
| 2026-04-21 17:46 | 26.22982 | 49.96910 | 10620 ft | 319 kts | 253° |
| 2026-04-21 17:46 | 26.22570 | 49.94454 | 11168 ft | 326 kts | 259° |
| 2026-04-21 17:46 | 26.22306 | 49.91934 | 11808 ft | 329 kts | 262° |
| 2026-04-21 17:46 | 26.22132 | 49.89381 | 12457 ft | 332 kts | 263° |
| 2026-04-21 17:47 | 26.22000 | 49.86803 | 13109 ft | 335 kts | 264° |
| 2026-04-21 17:47 | 26.21978 | 49.84198 | 13756 ft | 339 kts | 267° |
| 2026-04-21 17:47 | 26.22035 | 49.81584 | 14324 ft | 341 kts | 268° |
| 2026-04-21 17:47 | 26.22050 | 49.78939 | 14918 ft | 342 kts | 265° |
| 2026-04-21 17:48 | 26.21952 | 49.77151 | 15294 ft | 343 kts | 262° |
| 2026-04-21 17:48 | 26.21555 | 49.73656 | 16051 ft | 345 kts | 259° |
| 2026-04-21 17:48 | 26.21194 | 49.71006 | 16600 ft | 347 kts | 260° |
| 2026-04-21 17:48 | 26.20870 | 49.68332 | 17161 ft | 350 kts | 262° |
| 2026-04-21 17:49 | 26.20609 | 49.65626 | 17704 ft | 353 kts | 263° |
| 2026-04-21 17:49 | 26.20454 | 49.62887 | 18230 ft | 356 kts | 266° |
| 2026-04-21 17:49 | 26.20432 | 49.60123 | 18691 ft | 359 kts | 269° |
| 2026-04-21 17:49 | 26.20475 | 49.57336 | 19154 ft | 361 kts | 269° |
| 2026-04-21 17:50 | 26.20484 | 49.54534 | 19617 ft | 363 kts | 268° |
| 2026-04-21 17:50 | 26.20423 | 49.51720 | 20084 ft | 364 kts | 266° |
| 2026-04-21 17:50 | 26.20280 | 49.48905 | 20550 ft | 366 kts | 265° |
| 2026-04-21 17:50 | 26.20069 | 49.46075 | 21010 ft | 367 kts | 264° |
| 2026-04-21 17:51 | 26.19824 | 49.43236 | 21448 ft | 370 kts | 264° |
| 2026-04-21 17:51 | 26.19584 | 49.40379 | 21795 ft | 372 kts | 264° |
| 2026-04-21 17:51 | 26.19364 | 49.37517 | 21872 ft | 371 kts | 265° |
| 2026-04-21 17:51 | 26.19166 | 49.34646 | 21997 ft | 373 kts | 265° |
| 2026-04-21 17:52 | 26.18983 | 49.31766 | 22466 ft | 374 kts | 265° |
| 2026-04-21 17:52 | 26.18806 | 49.28871 | 22908 ft | 376 kts | 266° |
| 2026-04-21 17:52 | 26.18630 | 49.25959 | 23334 ft | 378 kts | 266° |
| 2026-04-21 17:52 | 26.18452 | 49.23031 | 23700 ft | 380 kts | 266° |
| 2026-04-21 17:53 | 26.18270 | 49.20091 | 24048 ft | 382 kts | 266° |
| 2026-04-21 17:53 | 26.18115 | 49.17128 | 24394 ft | 384 kts | 266° |
| 2026-04-21 17:53 | 26.17949 | 49.14158 | 24740 ft | 385 kts | 266° |
| 2026-04-21 17:53 | 26.17757 | 49.11179 | 25078 ft | 387 kts | 265° |
| 2026-04-21 17:54 | 26.17194 | 49.08247 | 25391 ft | 391 kts | 251° |
| 2026-04-21 17:54 | 26.16159 | 49.05441 | 25713 ft | 393 kts | 250° |
| 2026-04-21 17:54 | 26.15467 | 49.03579 | 25940 ft | 394 kts | 250° |
| 2026-04-21 17:54 | 26.14075 | 48.99788 | 26371 ft | 396 kts | 253° |
| 2026-04-21 17:55 | 26.13506 | 48.96810 | 26672 ft | 395 kts | 266° |
| 2026-04-21 17:55 | 26.13296 | 48.93758 | 26995 ft | 396 kts | 266° |
| 2026-04-21 17:55 | 26.13092 | 48.90695 | 27333 ft | 398 kts | 266° |
| 2026-04-21 17:55 | 26.12885 | 48.87624 | 27646 ft | 399 kts | 266° |
| 2026-04-21 17:56 | 26.12673 | 48.84534 | 27962 ft | 401 kts | 266° |
| 2026-04-21 17:56 | 26.12456 | 48.81437 | 28260 ft | 402 kts | 266° |
| 2026-04-21 17:56 | 26.12311 | 48.79378 | 28456 ft | 403 kts | 266° |
| 2026-04-21 17:56 | 26.12014 | 48.75212 | 28818 ft | 405 kts | 266° |
| 2026-04-21 17:57 | 26.11639 | 48.69048 | 28907 ft | 391 kts | 273° |
| 2026-04-21 17:57 | 26.12842 | 48.63175 | 28921 ft | 389 kts | 283° |
| 2026-04-21 17:58 | 26.14063 | 48.57326 | 28923 ft | 387 kts | 273° |
| 2026-04-21 17:58 | 26.13641 | 48.51360 | 28930 ft | 387 kts | 264° |
| 2026-04-21 17:59 | 26.13046 | 48.46427 | 28928 ft | 387 kts | 263° |
| 2026-04-21 17:59 | 26.12355 | 48.39512 | 28934 ft | 387 kts | 266° |
| 2026-04-21 18:00 | 26.12157 | 48.33539 | 28935 ft | 386 kts | 269° |
| 2026-04-21 18:00 | 26.11658 | 48.27618 | 28921 ft | 387 kts | 251° |
| 2026-04-21 18:01 | 26.08859 | 48.22531 | 28911 ft | 397 kts | 225° |
| 2026-04-21 18:01 | 26.05491 | 48.19013 | 28906 ft | 394 kts | 234° |
| 2026-04-21 18:02 | 26.02242 | 48.14111 | 28906 ft | 395 kts | 238° |
| 2026-04-21 18:02 | 25.98987 | 48.09172 | 28901 ft | 397 kts | 235° |
| 2026-04-21 18:03 | 25.95492 | 48.04394 | 28903 ft | 400 kts | 233° |
| 2026-04-21 18:03 | 25.91884 | 47.99683 | 28907 ft | 401 kts | 233° |
| 2026-04-21 18:04 | 25.88268 | 47.94945 | 28907 ft | 402 kts | 233° |
| 2026-04-21 18:04 | 25.84669 | 47.90177 | 28904 ft | 403 kts | 233° |
| 2026-04-21 18:05 | 25.81069 | 47.85391 | 28901 ft | 405 kts | 233° |
| 2026-04-21 18:05 | 25.77479 | 47.80627 | 28900 ft | 405 kts | 233° |
| 2026-04-21 18:06 | 25.73858 | 47.75835 | 28904 ft | 405 kts | 234° |
| 2026-04-21 18:06 | 25.70235 | 47.71049 | 28899 ft | 405 kts | 234° |
| 2026-04-21 18:07 | 25.66610 | 47.66264 | 28907 ft | 405 kts | 234° |
| 2026-04-21 18:07 | 25.62998 | 47.61488 | 28917 ft | 404 kts | 234° |
| 2026-04-21 18:08 | 25.59393 | 47.56721 | 28918 ft | 403 kts | 234° |
| 2026-04-21 18:08 | 25.55808 | 47.51988 | 28920 ft | 402 kts | 234° |
| 2026-04-21 18:09 | 25.52209 | 47.47256 | 28917 ft | 401 kts | 234° |
| 2026-04-21 18:09 | 25.48610 | 47.42531 | 28919 ft | 401 kts | 234° |
| 2026-04-21 18:10 | 25.45019 | 47.37821 | 28920 ft | 400 kts | 234° |
| 2026-04-21 18:10 | 25.41432 | 47.33117 | 28915 ft | 399 kts | 234° |
| 2026-04-21 18:11 | 25.37859 | 47.28439 | 28913 ft | 399 kts | 234° |
| 2026-04-21 18:11 | 25.34281 | 47.23757 | 28909 ft | 399 kts | 234° |
| 2026-04-21 18:12 | 25.30699 | 47.19077 | 28905 ft | 398 kts | 234° |
| 2026-04-21 18:12 | 25.27119 | 47.14403 | 28905 ft | 398 kts | 234° |
| 2026-04-21 18:13 | 25.23868 | 47.10164 | 28900 ft | 398 kts | 234° |
| 2026-04-21 18:13 | 25.20282 | 47.05495 | 28895 ft | 399 kts | 234° |
| 2026-04-21 18:14 | 25.14899 | 46.98491 | 28889 ft | 399 kts | 234° |
| 2026-04-21 18:15 | 25.11306 | 46.93821 | 28893 ft | 399 kts | 234° |
| 2026-04-21 18:15 | 25.07709 | 46.89151 | 28890 ft | 400 kts | 234° |
| 2026-04-21 18:16 | 25.04102 | 46.84479 | 28896 ft | 400 kts | 233° |
| 2026-04-21 18:16 | 25.02011 | 46.82421 | 28896 ft | 409 kts | 218° |
| 2026-04-21 18:16 | 24.99418 | 46.81135 | 28896 ft | 422 kts | 200° |
| 2026-04-21 18:16 | 24.96460 | 46.80797 | 28892 ft | 437 kts | 182° |
| 2026-04-21 18:17 | 24.93458 | 46.81536 | 28888 ft | 451 kts | 164° |
| 2026-04-21 18:17 | 24.90685 | 46.83245 | 28884 ft | 464 kts | 144° |
| 2026-04-21 18:17 | 24.88540 | 46.85936 | 28880 ft | 475 kts | 124° |
| 2026-04-21 18:18 | 24.85697 | 46.92549 | 28877 ft | 481 kts | 112° |
| 2026-04-21 18:18 | 24.83541 | 46.99537 | 28874 ft | 484 kts | 110° |
| 2026-04-21 18:19 | 24.81249 | 47.06516 | 28876 ft | 484 kts | 114° |
| 2026-04-21 18:19 | 24.78684 | 47.13366 | 28879 ft | 484 kts | 115° |
| 2026-04-21 18:20 | 24.76041 | 47.20181 | 28882 ft | 484 kts | 115° |
| 2026-04-21 18:20 | 24.73448 | 47.27017 | 28881 ft | 485 kts | 115° |
| 2026-04-21 18:21 | 24.70894 | 47.33881 | 28885 ft | 485 kts | 114° |
| 2026-04-21 18:21 | 24.68341 | 47.40740 | 28889 ft | 485 kts | 114° |
| 2026-04-21 18:22 | 24.65769 | 47.47597 | 28885 ft | 485 kts | 114° |
| 2026-04-21 18:22 | 24.63185 | 47.54454 | 28882 ft | 485 kts | 114° |
| 2026-04-21 18:23 | 24.60601 | 47.61304 | 28889 ft | 485 kts | 114° |
| 2026-04-21 18:23 | 24.58018 | 47.68150 | 28893 ft | 485 kts | 114° |
| 2026-04-21 18:24 | 24.55441 | 47.74971 | 28887 ft | 485 kts | 114° |
| 2026-04-21 18:24 | 24.52852 | 47.81809 | 28890 ft | 485 kts | 114° |
| 2026-04-21 18:25 | 24.50346 | 47.88682 | 28895 ft | 485 kts | 111° |
| 2026-04-21 18:25 | 24.48128 | 47.95675 | 28893 ft | 485 kts | 109° |
| 2026-04-21 18:26 | 24.45978 | 48.02703 | 28908 ft | 489 kts | 110° |
| 2026-04-21 18:26 | 24.44862 | 48.06253 | 29039 ft | 495 kts | 110° |
| 2026-04-21 18:26 | 24.43717 | 48.09837 | 29171 ft | 501 kts | 109° |
| 2026-04-21 18:26 | 24.42873 | 48.13566 | 29311 ft | 507 kts | 99° |
| 2026-04-21 18:27 | 24.42308 | 48.17407 | 29502 ft | 511 kts | 99° |
| 2026-04-21 18:27 | 24.41689 | 48.21245 | 29802 ft | 511 kts | 105° |
| 2026-04-21 18:27 | 24.40575 | 48.24943 | 30087 ft | 511 kts | 109° |
| 2026-04-21 18:27 | 24.39878 | 48.28755 | 30343 ft | 511 kts | 93° |
| 2026-04-21 18:28 | 24.39675 | 48.32650 | 30618 ft | 512 kts | 92° |
| 2026-04-21 18:28 | 24.39481 | 48.36495 | 30893 ft | 512 kts | 92° |
| 2026-04-21 18:28 | 24.39284 | 48.40393 | 31178 ft | 512 kts | 92° |
| 2026-04-21 18:28 | 24.39068 | 48.44294 | 31482 ft | 512 kts | 96° |
| 2026-04-21 18:29 | 24.38359 | 48.48106 | 31766 ft | 511 kts | 109° |
| 2026-04-21 18:29 | 24.37170 | 48.51743 | 32045 ft | 510 kts | 111° |
| 2026-04-21 18:29 | 24.35950 | 48.55391 | 32336 ft | 510 kts | 111° |
| 2026-04-21 18:29 | 24.34722 | 48.59042 | 32620 ft | 510 kts | 111° |
| 2026-04-21 18:30 | 24.33489 | 48.62696 | 32856 ft | 511 kts | 111° |
| 2026-04-21 18:30 | 24.31050 | 48.69908 | 32883 ft | 511 kts | 111° |
| 2026-04-21 18:31 | 24.28554 | 48.77276 | 32880 ft | 511 kts | 111° |
| 2026-04-21 18:31 | 24.26077 | 48.84580 | 32877 ft | 511 kts | 111° |
| 2026-04-21 18:32 | 24.23577 | 48.91934 | 32877 ft | 512 kts | 111° |
| 2026-04-21 18:32 | 24.20362 | 48.98744 | 32868 ft | 506 kts | 127° |
| 2026-04-21 18:33 | 24.16401 | 49.05123 | 32858 ft | 507 kts | 127° |
| 2026-04-21 18:33 | 24.14615 | 49.08462 | 32856 ft | 510 kts | 112° |
| 2026-04-21 18:33 | 24.13518 | 49.12155 | 32849 ft | 511 kts | 107° |
| 2026-04-21 18:34 | 24.11452 | 49.19586 | 32846 ft | 512 kts | 108° |
| 2026-04-21 18:34 | 24.09335 | 49.27020 | 32847 ft | 513 kts | 108° |
| 2026-04-21 18:35 | 24.07582 | 49.33218 | 32846 ft | 513 kts | 107° |
| 2026-04-21 18:35 | 24.05138 | 49.41949 | 32848 ft | 514 kts | 107° |
| 2026-04-21 18:36 | 24.03047 | 49.49427 | 32844 ft | 514 kts | 107° |
| 2026-04-21 18:36 | 24.00944 | 49.56904 | 32843 ft | 514 kts | 107° |
| 2026-04-21 18:37 | 23.98828 | 49.64378 | 32845 ft | 515 kts | 108° |
| 2026-04-21 18:37 | 23.96662 | 49.71831 | 32845 ft | 515 kts | 108° |
| 2026-04-21 18:38 | 23.94513 | 49.79289 | 32851 ft | 514 kts | 108° |
| 2026-04-21 18:38 | 23.92395 | 49.86760 | 32847 ft | 514 kts | 107° |
| 2026-04-21 18:39 | 23.90290 | 49.94202 | 32841 ft | 514 kts | 107° |
| 2026-04-21 18:39 | 23.88167 | 50.01658 | 32837 ft | 514 kts | 108° |
| 2026-04-21 18:40 | 23.86039 | 50.09107 | 32834 ft | 513 kts | 107° |
| 2026-04-21 18:40 | 23.84302 | 50.15308 | 32830 ft | 513 kts | 107° |
| 2026-04-21 18:41 | 23.81837 | 50.24006 | 32828 ft | 513 kts | 108° |
| 2026-04-21 18:41 | 23.79680 | 50.31434 | 32826 ft | 513 kts | 108° |
| 2026-04-21 18:42 | 23.77508 | 50.38844 | 32824 ft | 512 kts | 108° |
| 2026-04-21 18:42 | 23.75342 | 50.46252 | 32825 ft | 512 kts | 108° |
| 2026-04-21 18:43 | 23.73194 | 50.53668 | 32826 ft | 512 kts | 108° |
| 2026-04-21 18:43 | 23.71066 | 50.61032 | 32831 ft | 512 kts | 108° |
| 2026-04-21 18:44 | 23.68920 | 50.68434 | 32829 ft | 512 kts | 108° |
| 2026-04-21 18:44 | 23.66762 | 50.75843 | 32825 ft | 512 kts | 108° |
| 2026-04-21 18:45 | 23.64604 | 50.83237 | 32839 ft | 512 kts | 108° |
| 2026-04-21 18:45 | 23.62256 | 50.90545 | 32825 ft | 509 kts | 121° |
| 2026-04-21 18:46 | 23.58365 | 50.96961 | 32826 ft | 507 kts | 126° |
| 2026-04-21 18:46 | 23.55073 | 51.02254 | 32823 ft | 508 kts | 125° |
| 2026-04-21 18:46 | 23.53132 | 51.06925 | 32818 ft | 508 kts | 100° |
| 2026-04-21 18:47 | 23.52866 | 51.09442 | 32817 ft | 505 kts | 89° |
| 2026-04-21 18:47 | 23.51762 | 51.16940 | 32814 ft | 506 kts | 118° |
| 2026-04-21 18:48 | 23.48258 | 51.23533 | 32811 ft | 506 kts | 108° |
| 2026-04-21 18:48 | 23.47619 | 51.27277 | 32805 ft | 502 kts | 89° |
| 2026-04-21 18:48 | 23.47568 | 51.31075 | 32806 ft | 502 kts | 88° |
| 2026-04-21 18:49 | 23.47492 | 51.38689 | 32811 ft | 504 kts | 89° |
| 2026-04-21 18:49 | 23.47091 | 51.42489 | 32801 ft | 507 kts | 103° |
| 2026-04-21 18:49 | 23.46437 | 51.44927 | 32809 ft | 507 kts | 107° |
| 2026-04-21 18:50 | 23.43909 | 51.53492 | 32802 ft | 509 kts | 108° |
| 2026-04-21 18:50 | 23.41748 | 51.60827 | 32805 ft | 509 kts | 106° |
| 2026-04-21 18:51 | 23.39745 | 51.68223 | 32808 ft | 510 kts | 106° |
| 2026-04-21 18:51 | 23.37657 | 51.75596 | 32808 ft | 510 kts | 108° |
| 2026-04-21 18:52 | 23.35443 | 51.82926 | 32813 ft | 510 kts | 108° |
| 2026-04-21 18:52 | 23.33201 | 51.90247 | 32811 ft | 510 kts | 108° |
| 2026-04-21 18:53 | 23.30986 | 51.97577 | 32811 ft | 510 kts | 108° |
| 2026-04-21 18:53 | 23.27953 | 52.04474 | 32804 ft | 506 kts | 127° |
| 2026-04-21 18:54 | 23.23965 | 52.10784 | 32803 ft | 507 kts | 123° |
| 2026-04-21 18:54 | 23.22388 | 52.14210 | 32801 ft | 508 kts | 109° |
| 2026-04-21 18:54 | 23.21686 | 52.17946 | 32801 ft | 504 kts | 90° |
| 2026-04-21 18:55 | 23.21551 | 52.24273 | 32794 ft | 504 kts | 89° |
| 2026-04-21 18:55 | 23.21254 | 52.29304 | 32795 ft | 506 kts | 100° |
| 2026-04-21 18:55 | 23.20306 | 52.32988 | 32793 ft | 505 kts | 108° |
| 2026-04-21 18:55 | 23.19257 | 52.36604 | 32578 ft | 500 kts | 104° |
| 2026-04-21 18:56 | 23.18634 | 52.40314 | 32339 ft | 498 kts | 93° |
| 2026-04-21 18:56 | 23.18596 | 52.44055 | 32081 ft | 493 kts | 82° |
| 2026-04-21 18:56 | 23.19142 | 52.47705 | 31831 ft | 488 kts | 71° |
| 2026-04-21 18:56 | 23.20156 | 52.51210 | 31587 ft | 485 kts | 70° |
| 2026-04-21 18:57 | 23.20787 | 52.54820 | 31343 ft | 490 kts | 84° |
| 2026-04-21 18:57 | 23.20703 | 52.58525 | 31103 ft | 492 kts | 94° |
| 2026-04-21 18:57 | 23.20405 | 52.62228 | 30872 ft | 492 kts | 93° |
| 2026-04-21 18:57 | 23.20161 | 52.65930 | 30634 ft | 491 kts | 92° |
| 2026-04-21 18:58 | 23.19960 | 52.69631 | 30396 ft | 490 kts | 92° |
| 2026-04-21 18:58 | 23.19784 | 52.73330 | 30161 ft | 489 kts | 91° |
| 2026-04-21 18:58 | 23.19612 | 52.77020 | 29933 ft | 489 kts | 91° |
| 2026-04-21 18:58 | 23.19419 | 52.80705 | 29666 ft | 489 kts | 94° |
| 2026-04-21 18:59 | 23.19080 | 52.84379 | 29391 ft | 489 kts | 96° |
| 2026-04-21 18:59 | 23.18689 | 52.88052 | 29123 ft | 489 kts | 95° |
| 2026-04-21 18:59 | 23.18354 | 52.91722 | 28857 ft | 489 kts | 94° |
| 2026-04-21 18:59 | 23.18114 | 52.95405 | 28588 ft | 488 kts | 92° |
| 2026-04-21 19:00 | 23.17957 | 52.99090 | 28328 ft | 488 kts | 91° |
| 2026-04-21 19:00 | 23.17639 | 53.02762 | 28066 ft | 489 kts | 99° |
| 2026-04-21 19:00 | 23.16944 | 53.06373 | 27804 ft | 489 kts | 103° |
| 2026-04-21 19:00 | 23.16204 | 53.09978 | 27548 ft | 489 kts | 101° |
| 2026-04-21 19:01 | 23.15625 | 53.13619 | 27290 ft | 489 kts | 97° |
| 2026-04-21 19:01 | 23.15273 | 53.17292 | 27045 ft | 488 kts | 94° |
| 2026-04-21 19:01 | 23.15107 | 53.20968 | 26801 ft | 487 kts | 91° |
| 2026-04-21 19:01 | 23.15038 | 53.24638 | 26555 ft | 484 kts | 90° |
| 2026-04-21 19:02 | 23.14983 | 53.28286 | 26311 ft | 483 kts | 91° |
| 2026-04-21 19:02 | 23.14890 | 53.31926 | 26071 ft | 485 kts | 92° |
| 2026-04-21 19:02 | 23.14738 | 53.35601 | 25838 ft | 499 kts | 93° |
| 2026-04-21 19:02 | 23.14529 | 53.39381 | 25594 ft | 502 kts | 94° |
| 2026-04-21 19:03 | 23.14280 | 53.43218 | 25356 ft | 502 kts | 94° |
| 2026-04-21 19:03 | 23.14020 | 53.46995 | 25121 ft | 501 kts | 94° |
| 2026-04-21 19:03 | 23.13763 | 53.50708 | 24896 ft | 499 kts | 94° |
| 2026-04-21 19:03 | 23.13557 | 53.54463 | 24764 ft | 497 kts | 90° |
| 2026-04-21 19:04 | 23.13719 | 53.58211 | 24810 ft | 498 kts | 85° |
| 2026-04-21 19:04 | 23.14016 | 53.61961 | 24808 ft | 498 kts | 85° |
| 2026-04-21 19:04 | 23.14201 | 53.65721 | 24810 ft | 499 kts | 89° |
| 2026-04-21 19:04 | 23.14169 | 53.69542 | 24811 ft | 499 kts | 92° |
| 2026-04-21 19:05 | 23.13934 | 53.73247 | 24811 ft | 499 kts | 96° |
| 2026-04-21 19:05 | 23.13566 | 53.76999 | 24811 ft | 499 kts | 97° |
| 2026-04-21 19:05 | 23.13151 | 53.80741 | 24808 ft | 499 kts | 97° |
| 2026-04-21 19:05 | 23.12753 | 53.84484 | 24808 ft | 499 kts | 96° |
| 2026-04-21 19:06 | 23.12509 | 53.88245 | 24805 ft | 499 kts | 92° |
| 2026-04-21 19:06 | 23.12453 | 53.92017 | 24807 ft | 499 kts | 90° |
| 2026-04-21 19:06 | 23.12444 | 53.95789 | 24807 ft | 499 kts | 90° |
| 2026-04-21 19:06 | 23.12389 | 53.99554 | 24804 ft | 499 kts | 91° |
| 2026-04-21 19:07 | 23.12248 | 54.03324 | 24806 ft | 499 kts | 93° |
| 2026-04-21 19:07 | 23.12026 | 54.07088 | 24806 ft | 499 kts | 94° |
| 2026-04-21 19:07 | 23.11753 | 54.10841 | 24809 ft | 499 kts | 95° |
| 2026-04-21 19:07 | 23.11460 | 54.14600 | 24808 ft | 499 kts | 95° |
| 2026-04-21 19:08 | 23.11174 | 54.18350 | 24806 ft | 499 kts | 95° |
| 2026-04-21 19:08 | 23.10904 | 54.22106 | 24805 ft | 499 kts | 95° |
| 2026-04-21 19:08 | 23.10653 | 54.25866 | 24805 ft | 498 kts | 94° |
| 2026-04-21 19:08 | 23.10415 | 54.29621 | 24807 ft | 498 kts | 94° |
| 2026-04-21 19:09 | 23.10181 | 54.33374 | 24805 ft | 498 kts | 94° |
| 2026-04-21 19:09 | 23.09947 | 54.37128 | 24805 ft | 498 kts | 94° |
| 2026-04-21 19:09 | 23.09707 | 54.40880 | 24809 ft | 498 kts | 94° |
| 2026-04-21 19:09 | 23.09463 | 54.44632 | 24808 ft | 498 kts | 94° |
| 2026-04-21 19:10 | 23.09213 | 54.48383 | 24810 ft | 498 kts | 94° |
| 2026-04-21 19:10 | 23.08962 | 54.52131 | 24811 ft | 498 kts | 94° |
| 2026-04-21 19:10 | 23.08709 | 54.55881 | 24811 ft | 498 kts | 94° |
| 2026-04-21 19:10 | 23.08457 | 54.59626 | 24810 ft | 497 kts | 94° |
| 2026-04-21 19:11 | 23.08204 | 54.63367 | 24809 ft | 497 kts | 94° |
| 2026-04-21 19:11 | 23.07952 | 54.67112 | 24808 ft | 497 kts | 94° |
| 2026-04-21 19:11 | 23.07699 | 54.70853 | 24803 ft | 497 kts | 94° |
| 2026-04-21 19:11 | 23.07445 | 54.74596 | 24804 ft | 497 kts | 95° |
| 2026-04-21 19:12 | 23.07277 | 54.77078 | 24805 ft | 497 kts | 95° |
| 2026-04-21 19:12 | 23.06935 | 54.82081 | 24804 ft | 497 kts | 95° |
| 2026-04-21 19:12 | 23.06679 | 54.85815 | 24806 ft | 497 kts | 95° |
| 2026-04-21 19:12 | 23.06421 | 54.89559 | 24803 ft | 496 kts | 95° |
| 2026-04-21 19:13 | 23.06162 | 54.93293 | 24801 ft | 496 kts | 95° |
| 2026-04-21 19:13 | 23.05903 | 54.97033 | 24800 ft | 496 kts | 95° |
| 2026-04-21 19:13 | 23.05642 | 55.00767 | 24800 ft | 496 kts | 95° |
| 2026-04-21 19:13 | 23.05381 | 55.04506 | 24799 ft | 496 kts | 95° |
| 2026-04-21 19:14 | 23.05119 | 55.08239 | 24797 ft | 496 kts | 95° |
| 2026-04-21 19:14 | 23.04856 | 55.11981 | 24800 ft | 497 kts | 95° |
| 2026-04-21 19:14 | 23.04612 | 55.15715 | 24795 ft | 497 kts | 91° |
| 2026-04-21 19:14 | 23.04959 | 55.19434 | 24794 ft | 496 kts | 75° |
| 2026-04-21 19:15 | 23.06254 | 55.22874 | 24793 ft | 492 kts | 57° |
| 2026-04-21 19:15 | 23.08371 | 55.25706 | 24794 ft | 486 kts | 39° |
| 2026-04-21 19:15 | 23.11142 | 55.27739 | 24794 ft | 479 kts | 22° |
| 2026-04-21 19:15 | 23.14267 | 55.28894 | 24792 ft | 474 kts | 12° |
| 2026-04-21 19:16 | 23.17455 | 55.29825 | 24795 ft | 474 kts | 12° |
| 2026-04-21 19:16 | 23.20615 | 55.30741 | 24792 ft | 474 kts | 12° |
| 2026-04-21 19:16 | 23.23808 | 55.31668 | 24789 ft | 475 kts | 12° |
| 2026-04-21 19:16 | 23.27003 | 55.32599 | 24795 ft | 475 kts | 12° |
| 2026-04-21 19:17 | 23.33340 | 55.34456 | 24796 ft | 475 kts | 12° |
| 2026-04-21 19:17 | 23.36509 | 55.35390 | 24801 ft | 475 kts | 12° |
| 2026-04-21 19:17 | 23.39704 | 55.36330 | 24801 ft | 475 kts | 12° |
| 2026-04-21 19:18 | 23.42895 | 55.37270 | 24800 ft | 475 kts | 12° |
| 2026-04-21 19:18 | 23.46087 | 55.38210 | 24803 ft | 476 kts | 12° |
| 2026-04-21 19:18 | 23.49293 | 55.39153 | 24811 ft | 481 kts | 12° |
| 2026-04-21 19:18 | 23.52552 | 55.40110 | 24818 ft | 487 kts | 12° |
| 2026-04-21 19:19 | 23.55829 | 55.41073 | 24819 ft | 489 kts | 12° |
| 2026-04-21 19:19 | 23.59119 | 55.42042 | 24816 ft | 490 kts | 12° |
| 2026-04-21 19:19 | 23.62407 | 55.43011 | 24819 ft | 490 kts | 12° |
| 2026-04-21 19:19 | 23.65703 | 55.43964 | 24815 ft | 489 kts | 9° |
| 2026-04-21 19:20 | 23.69030 | 55.44668 | 24814 ft | 487 kts | 6° |
| 2026-04-21 19:20 | 23.72375 | 55.45247 | 24816 ft | 487 kts | 6° |
| 2026-04-21 19:20 | 23.75721 | 55.45885 | 24820 ft | 488 kts | 7° |
| 2026-04-21 19:20 | 23.79037 | 55.46662 | 24818 ft | 489 kts | 10° |
| 2026-04-21 19:21 | 23.82334 | 55.47581 | 24820 ft | 490 kts | 12° |
| 2026-04-21 19:21 | 23.85611 | 55.48599 | 24818 ft | 490 kts | 13° |
| 2026-04-21 19:21 | 23.88883 | 55.49660 | 24814 ft | 490 kts | 13° |
| 2026-04-21 19:21 | 23.92147 | 55.50713 | 24814 ft | 490 kts | 13° |
| 2026-04-21 19:22 | 23.95423 | 55.51742 | 24818 ft | 489 kts | 12° |
| 2026-04-21 19:22 | 23.98691 | 55.52796 | 24809 ft | 491 kts | 17° |
| 2026-04-21 19:22 | 24.01794 | 55.54383 | 24813 ft | 496 kts | 28° |
| 2026-04-21 19:22 | 24.04577 | 55.56636 | 24812 ft | 500 kts | 39° |
| 2026-04-21 19:23 | 24.07161 | 55.59179 | 24811 ft | 500 kts | 40° |
| 2026-04-21 19:23 | 24.09740 | 55.61739 | 24814 ft | 501 kts | 40° |
| 2026-04-21 19:23 | 24.12315 | 55.64304 | 24814 ft | 501 kts | 40° |
| 2026-04-21 19:23 | 24.14889 | 55.66871 | 24818 ft | 501 kts | 40° |
| 2026-04-21 19:24 | 24.17457 | 55.69442 | 24817 ft | 501 kts | 40° |
| 2026-04-21 19:24 | 24.20012 | 55.72042 | 24820 ft | 501 kts | 40° |
| 2026-04-21 19:24 | 24.22561 | 55.74644 | 24822 ft | 501 kts | 40° |
| 2026-04-21 19:24 | 24.25117 | 55.77235 | 24827 ft | 501 kts | 40° |
| 2026-04-21 19:25 | 24.27695 | 55.79803 | 24832 ft | 500 kts | 39° |
| 2026-04-21 19:25 | 24.30304 | 55.82330 | 24834 ft | 500 kts | 39° |
| 2026-04-21 19:25 | 24.32919 | 55.84845 | 24837 ft | 500 kts | 39° |
| 2026-04-21 19:25 | 24.35523 | 55.87376 | 24836 ft | 500 kts | 39° |
| 2026-04-21 19:26 | 24.38126 | 55.89908 | 24842 ft | 500 kts | 39° |
| 2026-04-21 19:26 | 24.40675 | 55.92409 | 24844 ft | 500 kts | 39° |
| 2026-04-21 19:26 | 24.43249 | 55.95024 | 24849 ft | 501 kts | 41° |
| 2026-04-21 19:26 | 24.45700 | 55.97639 | 24858 ft | 489 kts | 43° |
| 2026-04-21 19:27 | 24.48039 | 56.00235 | 24813 ft | 469 kts | 43° |
| 2026-04-21 19:27 | 24.50306 | 56.02731 | 24581 ft | 455 kts | 41° |
| 2026-04-21 19:27 | 24.52551 | 56.05115 | 24351 ft | 442 kts | 40° |
| 2026-04-21 19:27 | 24.54772 | 56.07385 | 24132 ft | 430 kts | 39° |
| 2026-04-21 19:28 | 24.56962 | 56.09566 | 23909 ft | 421 kts | 39° |
| 2026-04-21 19:28 | 24.59125 | 56.11696 | 23669 ft | 415 kts | 38° |
| 2026-04-21 19:28 | 24.61259 | 56.13803 | 23233 ft | 410 kts | 38° |
| 2026-04-21 19:28 | 24.63428 | 56.15811 | 22738 ft | 406 kts | 34° |
| 2026-04-21 19:29 | 24.65674 | 56.17670 | 22284 ft | 402 kts | 33° |
| 2026-04-21 19:29 | 24.67896 | 56.19514 | 21821 ft | 399 kts | 34° |
| 2026-04-21 19:29 | 24.70060 | 56.21418 | 21358 ft | 398 kts | 37° |
| 2026-04-21 19:29 | 24.72155 | 56.23393 | 20887 ft | 396 kts | 39° |
| 2026-04-21 19:30 | 24.74197 | 56.25419 | 20415 ft | 395 kts | 40° |
| 2026-04-21 19:30 | 24.76208 | 56.27474 | 19928 ft | 394 kts | 40° |
| 2026-04-21 19:30 | 24.78205 | 56.29530 | 19441 ft | 393 kts | 40° |
| 2026-04-21 19:30 | 24.80203 | 56.31583 | 18923 ft | 393 kts | 40° |
| 2026-04-21 19:31 | 24.82275 | 56.33545 | 18176 ft | 396 kts | 31° |
| 2026-04-21 19:31 | 24.84771 | 56.34828 | 17445 ft | 394 kts | 12° |
| 2026-04-21 19:31 | 24.87438 | 56.35228 | 17066 ft | 382 kts | 356° |
| 2026-04-21 19:31 | 24.90022 | 56.34785 | 16593 ft | 373 kts | 339° |
| 2026-04-21 19:32 | 24.92325 | 56.33558 | 16109 ft | 366 kts | 324° |
| 2026-04-21 19:32 | 24.94443 | 56.32036 | 15605 ft | 365 kts | 324° |
| 2026-04-21 19:32 | 24.96555 | 56.30516 | 15134 ft | 364 kts | 324° |
| 2026-04-21 19:32 | 24.98670 | 56.28991 | 14689 ft | 362 kts | 323° |
| 2026-04-21 19:33 | 25.00059 | 56.27980 | 14400 ft | 360 kts | 323° |
| 2026-04-21 19:33 | 25.02870 | 56.25997 | 13811 ft | 357 kts | 326° |
| 2026-04-21 19:33 | 25.04991 | 56.24590 | 13305 ft | 356 kts | 326° |
| 2026-04-21 19:33 | 25.07106 | 56.23184 | 12805 ft | 353 kts | 325° |
| 2026-04-21 19:34 | 25.09158 | 56.21789 | 12183 ft | 349 kts | 325° |
| 2026-04-21 19:34 | 25.11172 | 56.20323 | 11517 ft | 342 kts | 322° |
| 2026-04-21 19:34 | 25.13064 | 56.18823 | 11094 ft | 328 kts | 321° |
| 2026-04-21 19:34 | 25.14296 | 56.17836 | 10816 ft | 321 kts | 321° |
| 2026-04-21 19:35 | 25.16660 | 56.15986 | 10311 ft | 308 kts | 322° |
| 2026-04-21 19:35 | 25.19577 | 56.13805 | 9918 ft | 297 kts | 322° |
| 2026-04-21 19:35 | 25.21519 | 56.11747 | 9688 ft | 289 kts | 302° |
| 2026-04-21 19:36 | 25.22192 | 56.10515 | 9592 ft | 275 kts | 292° |
| 2026-04-21 19:36 | 25.22923 | 56.08611 | 9081 ft | 269 kts | 290° |
| 2026-04-21 19:36 | 25.23635 | 56.06689 | 8493 ft | 273 kts | 290° |
| 2026-04-21 19:36 | 25.24365 | 56.04717 | 7946 ft | 280 kts | 291° |
| 2026-04-21 19:37 | 25.25106 | 56.02720 | 7504 ft | 281 kts | 291° |
| 2026-04-21 19:37 | 25.25900 | 56.00748 | 7110 ft | 281 kts | 295° |
| 2026-04-21 19:37 | 25.26757 | 55.98811 | 6721 ft | 280 kts | 295° |
| 2026-04-21 19:37 | 25.27611 | 55.96912 | 6335 ft | 280 kts | 296° |
| 2026-04-21 19:38 | 25.28493 | 55.94951 | 5923 ft | 280 kts | 296° |
| 2026-04-21 19:38 | 25.29356 | 55.93024 | 5526 ft | 280 kts | 296° |
| 2026-04-21 19:38 | 25.30213 | 55.91099 | 5133 ft | 279 kts | 296° |
| 2026-04-21 19:38 | 25.31064 | 55.89177 | 4746 ft | 278 kts | 296° |
| 2026-04-21 19:39 | 25.31906 | 55.87266 | 4245 ft | 276 kts | 296° |
| 2026-04-21 19:39 | 25.32744 | 55.85354 | 3726 ft | 276 kts | 296° |
| 2026-04-21 19:39 | 25.33586 | 55.83449 | 3296 ft | 276 kts | 296° |
| 2026-04-21 19:39 | 25.34179 | 55.81874 | 3054 ft | 274 kts | 288° |
| 2026-04-21 19:40 | 25.34341 | 55.79789 | 2996 ft | 276 kts | 259° |
| 2026-04-21 19:40 | 25.33628 | 55.77920 | 2999 ft | 259 kts | 230° |
| 2026-04-21 19:40 | 25.32234 | 55.76722 | 2999 ft | 252 kts | 200° |
| 2026-04-21 19:40 | 25.30577 | 55.76126 | 3001 ft | 251 kts | 193° |
| 2026-04-21 19:41 | 25.28921 | 55.75643 | 2999 ft | 239 kts | 192° |
| 2026-04-21 19:41 | 25.27333 | 55.75189 | 2999 ft | 230 kts | 192° |
| 2026-04-21 19:41 | 25.25827 | 55.74756 | 3000 ft | 221 kts | 192° |
| 2026-04-21 19:41 | 25.24399 | 55.74146 | 2803 ft | 223 kts | 215° |
| 2026-04-21 19:42 | 25.23431 | 55.72816 | 2552 ft | 226 kts | 244° |
| 2026-04-21 19:42 | 25.23015 | 55.71143 | 2267 ft | 228 kts | 265° |
| 2026-04-21 19:42 | 25.23163 | 55.69416 | 2052 ft | 226 kts | 287° |
| 2026-04-21 19:42 | 25.23798 | 55.67872 | 1993 ft | 217 kts | 304° |
| 2026-04-21 19:43 | 25.24611 | 55.66473 | 1997 ft | 215 kts | 304° |
| 2026-04-21 19:43 | 25.25379 | 55.65140 | 2012 ft | 197 kts | 304° |
| 2026-04-21 19:43 | 25.26086 | 55.63916 | 1992 ft | 182 kts | 304° |
| 2026-04-21 19:43 | 25.26540 | 55.63131 | 1986 ft | 186 kts | 304° |
| 2026-04-21 19:44 | 25.27452 | 55.61553 | 1762 ft | 176 kts | 304° |
| 2026-04-21 19:44 | 25.28097 | 55.60436 | 1579 ft | 170 kts | 305° |
| 2026-04-21 19:44 | 25.28708 | 55.59377 | 1371 ft | 161 kts | 304° |
| 2026-04-21 19:44 | 25.29296 | 55.58359 | 1165 ft | 157 kts | 304° |
| 2026-04-21 19:45 | 25.29879 | 55.57350 | 969 ft | 154 kts | 304° |
| 2026-04-21 19:45 | 25.30398 | 55.56451 | 800 ft | 152 kts | 303° |
| 2026-04-21 19:45 | 25.30924 | 55.55541 | 630 ft | 149 kts | 305° |
| 2026-04-21 19:45 | 25.31451 | 55.54626 | 463 ft | 148 kts | 302° |
| 2026-04-21 19:46 | 25.31993 | 55.53678 | 246 ft | 146 kts | 303° |
| 2026-04-21 19:46 | 25.32532 | 55.52751 | 126 ft | 136 kts | 302° |
| 2026-04-21 19:46 | 25.32981 | 55.51974 | 117 ft | 98 kts | 302° |
| 2026-04-21 19:46 | 25.33261 | 55.51487 | 115 ft | 60 kts | 301° |
| 2026-04-21 19:47 | 25.33410 | 55.51226 | 115 ft | 27 kts | 303° |
| 2026-04-21 19:47 | 25.33461 | 55.51066 | 115 ft | 15 kts | 267° |
| 2026-04-21 19:47 | 25.33418 | 55.50982 | 115 ft | 12 kts | 217° |
| 2026-04-21 19:47 | 25.33356 | 55.50936 | 115 ft | 10 kts | 216° |
| 2026-04-21 19:48 | 25.33301 | 55.50897 | 115 ft | 9 kts | 210° |
| 2026-04-21 19:48 | 25.33253 | 55.50866 | 115 ft | 7 kts | 210° |
| 2026-04-21 19:48 | 25.33207 | 55.50836 | 115 ft | 10 kts | 206° |
| 2026-04-21 19:48 | 25.33145 | 55.50881 | 114 ft | 14 kts | 122° |
| 2026-04-21 19:49 | 25.33083 | 55.50990 | 115 ft | 19 kts | 123° |
| 2026-04-21 19:49 | 25.33002 | 55.51130 | 114 ft | 24 kts | 122° |
| 2026-04-21 19:49 | 25.32909 | 55.51293 | 113 ft | 26 kts | 122° |
| 2026-04-21 19:49 | 25.32810 | 55.51464 | 114 ft | 27 kts | 122° |
| 2026-04-21 19:50 | 25.32748 | 55.51573 | 112 ft | 23 kts | 123° |
| 2026-04-21 19:50 | 25.32654 | 55.51738 | 114 ft | 14 kts | 126° |
| 2026-04-21 19:50 | 25.32579 | 55.51724 | 115 ft | 11 kts | 212° |
| 2026-04-21 19:50 | 25.32529 | 55.51704 | 115 ft | 6 kts | 149° |
| 2026-04-21 19:51 | 25.32510 | 55.51737 | 114 ft | 4 kts | 122° |
| 2026-04-21 19:51 | 25.32505 | 55.51746 | 113 ft | 0 kts | 122° |